sensor_id;sensor_type;location;lat;lon;timestamp;pressure;altitude;pressure_sealevel;temperature;humidity
76694;BME280;69667;52.136;5.424;2023-07-08T00:01:18;101806.16;;;19.15;62.64
76694;BME280;69667;52.136;5.424;2023-07-08T00:03:46;101804.19;;;19.07;63.00
76694;BME280;69667;52.136;5.424;2023-07-08T00:06:18;101806.06;;;18.97;63.83
76694;BME280;69667;52.136;5.424;2023-07-08T00:08:46;101791.09;;;18.91;62.37
76694;BME280;69667;52.136;5.424;2023-07-08T00:11:14;101786.47;;;18.92;62.98
76694;BME280;69667;52.136;5.424;2023-07-08T00:13:41;101788.50;;;18.90;62.05
76694;BME280;69667;52.136;5.424;2023-07-08T00:16:12;101790.34;;;18.89;63.74
76694;BME280;69667;52.136;5.424;2023-07-08T00:18:40;101785.59;;;18.91;61.56
76694;BME280;69667;52.136;5.424;2023-07-08T00:21:11;101780.41;;;18.98;60.98
76694;BME280;69667;52.136;5.424;2023-07-08T00:23:43;101785.88;;;18.98;60.99
76694;BME280;69667;52.136;5.424;2023-07-08T00:26:22;101777.09;;;19.04;59.81
76694;BME280;69667;52.136;5.424;2023-07-08T00:28:51;101788.91;;;19.14;60.19
76694;BME280;69667;52.136;5.424;2023-07-08T00:31:19;101785.44;;;19.12;59.87
76694;BME280;69667;52.136;5.424;2023-07-08T00:33:54;101788.63;;;19.08;60.40
76694;BME280;69667;52.136;5.424;2023-07-08T00:36:27;101779.28;;;19.01;61.13
76694;BME280;69667;52.136;5.424;2023-07-08T00:38:55;101775.50;;;19.02;60.37
76694;BME280;69667;52.136;5.424;2023-07-08T00:43:54;101773.78;;;19.01;60.01
76694;BME280;69667;52.136;5.424;2023-07-08T00:51:29;101767.72;;;19.07;59.93
76694;BME280;69667;52.136;5.424;2023-07-08T00:53:56;101764.69;;;19.10;59.22
76694;BME280;69667;52.136;5.424;2023-07-08T00:56:53;101765.41;;;19.12;59.18
76694;BME280;69667;52.136;5.424;2023-07-08T01:01:55;101757.94;;;19.04;61.73
76694;BME280;69667;52.136;5.424;2023-07-08T01:04:29;101767.31;;;18.92;62.45
76694;BME280;69667;52.136;5.424;2023-07-08T01:06:59;101776.25;;;18.84;62.16
76694;BME280;69667;52.136;5.424;2023-07-08T01:09:37;101766.78;;;18.79;61.82
76694;BME280;69667;52.136;5.424;2023-07-08T01:12:09;101760.44;;;18.78;61.53
76694;BME280;69667;52.136;5.424;2023-07-08T01:14:39;101755.41;;;18.74;61.63
76694;BME280;69667;52.136;5.424;2023-07-08T01:17:09;101761.56;;;18.76;61.11
76694;BME280;69667;52.136;5.424;2023-07-08T01:19:41;101753.34;;;18.76;61.10
76694;BME280;69667;52.136;5.424;2023-07-08T01:22:08;101755.25;;;18.75;61.00
76694;BME280;69667;52.136;5.424;2023-07-08T01:24:38;101757.41;;;18.72;61.43
76694;BME280;69667;52.136;5.424;2023-07-08T01:27:11;101758.56;;;18.69;62.00
76694;BME280;69667;52.136;5.424;2023-07-08T01:29:39;101745.16;;;18.66;63.45
76694;BME280;69667;52.136;5.424;2023-07-08T01:32:06;101746.19;;;18.65;62.40
76694;BME280;69667;52.136;5.424;2023-07-08T01:34:33;101747.34;;;18.63;62.59
76694;BME280;69667;52.136;5.424;2023-07-08T01:37:03;101752.22;;;18.59;62.34
76694;BME280;69667;52.136;5.424;2023-07-08T01:39:31;101744.31;;;18.56;62.85
76694;BME280;69667;52.136;5.424;2023-07-08T01:41:58;101745.19;;;18.57;63.44
76694;BME280;69667;52.136;5.424;2023-07-08T01:44:31;101741.88;;;18.53;63.02
76694;BME280;69667;52.136;5.424;2023-07-08T01:47:04;101738.56;;;18.50;62.81
76694;BME280;69667;52.136;5.424;2023-07-08T01:49:34;101734.94;;;18.49;62.95
76694;BME280;69667;52.136;5.424;2023-07-08T01:52:02;101734.13;;;18.49;63.04
76694;BME280;69667;52.136;5.424;2023-07-08T01:54:29;101735.81;;;18.50;62.94
76694;BME280;69667;52.136;5.424;2023-07-08T01:56:57;101737.84;;;18.48;62.68
76694;BME280;69667;52.136;5.424;2023-07-08T01:59:24;101736.41;;;18.44;64.94
76694;BME280;69667;52.136;5.424;2023-07-08T02:01:51;101736.94;;;18.38;64.77
76694;BME280;69667;52.136;5.424;2023-07-08T02:04:22;101734.66;;;18.33;63.91
76694;BME280;69667;52.136;5.424;2023-07-08T02:06:54;101728.44;;;18.31;65.37
76694;BME280;69667;52.136;5.424;2023-07-08T02:09:23;101731.34;;;18.30;64.19
76694;BME280;69667;52.136;5.424;2023-07-08T02:11:49;101720.84;;;18.25;64.23
76694;BME280;69667;52.136;5.424;2023-07-08T02:14:16;101717.66;;;18.20;64.40
76694;BME280;69667;52.136;5.424;2023-07-08T02:16:43;101720.13;;;18.14;66.29
76694;BME280;69667;52.136;5.424;2023-07-08T02:19:10;101712.31;;;18.09;66.57
76694;BME280;69667;52.136;5.424;2023-07-08T02:21:37;101712.91;;;18.03;65.61
76694;BME280;69667;52.136;5.424;2023-07-08T02:24:04;101714.75;;;18.03;66.03
76694;BME280;69667;52.136;5.424;2023-07-08T02:26:31;101713.47;;;17.97;67.05
76694;BME280;69667;52.136;5.424;2023-07-08T02:28:59;101713.03;;;17.92;66.84
76694;BME280;69667;52.136;5.424;2023-07-08T02:31:25;101711.13;;;17.83;68.06
76694;BME280;69667;52.136;5.424;2023-07-08T02:33:53;101710.16;;;17.84;67.95
76694;BME280;69667;52.136;5.424;2023-07-08T02:36:20;101705.69;;;17.83;66.11
76694;BME280;69667;52.136;5.424;2023-07-08T02:38:47;101703.38;;;17.88;67.14
76694;BME280;69667;52.136;5.424;2023-07-08T02:41:13;101697.34;;;17.85;68.03
76694;BME280;69667;52.136;5.424;2023-07-08T02:43:40;101691.28;;;17.81;66.40
76694;BME280;69667;52.136;5.424;2023-07-08T02:46:07;101696.06;;;17.79;66.41
76694;BME280;69667;52.136;5.424;2023-07-08T02:48:34;101693.72;;;17.75;67.84
76694;BME280;69667;52.136;5.424;2023-07-08T02:51:02;101694.84;;;17.62;69.30
76694;BME280;69667;52.136;5.424;2023-07-08T02:53:29;101699.00;;;17.57;67.66
76694;BME280;69667;52.136;5.424;2023-07-08T02:55:56;101692.81;;;17.55;69.19
76694;BME280;69667;52.136;5.424;2023-07-08T02:58:23;101690.19;;;17.44;69.56
76694;BME280;69667;52.136;5.424;2023-07-08T03:00:53;101694.75;;;17.34;69.72
76694;BME280;69667;52.136;5.424;2023-07-08T03:03:20;101696.28;;;17.27;70.59
76694;BME280;69667;52.136;5.424;2023-07-08T03:05:58;101695.69;;;17.23;70.17
76694;BME280;69667;52.136;5.424;2023-07-08T03:08:26;101695.84;;;17.22;70.56
76694;BME280;69667;52.136;5.424;2023-07-08T03:11:03;101696.25;;;17.17;70.84
76694;BME280;69667;52.136;5.424;2023-07-08T03:13:31;101694.06;;;17.11;71.32
76694;BME280;69667;52.136;5.424;2023-07-08T03:15:59;101694.06;;;17.11;71.54
76694;BME280;69667;52.136;5.424;2023-07-08T03:18:27;101690.91;;;17.16;71.33
76694;BME280;69667;52.136;5.424;2023-07-08T03:20:55;101691.31;;;17.11;71.35
76694;BME280;69667;52.136;5.424;2023-07-08T03:23:24;101689.59;;;17.10;71.68
76694;BME280;69667;52.136;5.424;2023-07-08T03:25:52;101691.19;;;17.13;71.05
76694;BME280;69667;52.136;5.424;2023-07-08T03:28:20;101693.06;;;17.12;71.40
76694;BME280;69667;52.136;5.424;2023-07-08T03:30:51;101692.47;;;17.09;71.03
76694;BME280;69667;52.136;5.424;2023-07-08T03:33:18;101697.19;;;17.07;71.57
76694;BME280;69667;52.136;5.424;2023-07-08T03:35:45;101709.66;;;17.00;71.82
76694;BME280;69667;52.136;5.424;2023-07-08T03:38:12;101698.56;;;16.92;71.80
76694;BME280;69667;52.136;5.424;2023-07-08T03:40:39;101705.00;;;16.91;72.53
76694;BME280;69667;52.136;5.424;2023-07-08T03:43:07;101705.53;;;16.85;72.60
76694;BME280;69667;52.136;5.424;2023-07-08T03:45:35;101709.41;;;16.82;73.05
76694;BME280;69667;52.136;5.424;2023-07-08T03:48:02;101706.78;;;16.81;73.30
76694;BME280;69667;52.136;5.424;2023-07-08T03:50:30;101706.56;;;16.84;73.43
76694;BME280;69667;52.136;5.424;2023-07-08T03:52:57;101706.09;;;16.79;73.75
76694;BME280;69667;52.136;5.424;2023-07-08T03:55:29;101709.34;;;16.73;74.25
76694;BME280;69667;52.136;5.424;2023-07-08T03:57:57;101708.50;;;16.72;74.93
76694;BME280;69667;52.136;5.424;2023-07-08T04:00:25;101711.34;;;16.71;74.85
76694;BME280;69667;52.136;5.424;2023-07-08T04:02:52;101714.31;;;16.68;75.38
76694;BME280;69667;52.136;5.424;2023-07-08T04:05:22;101708.16;;;16.66;76.02
76694;BME280;69667;52.136;5.424;2023-07-08T04:07:49;101705.53;;;16.64;76.19
76694;BME280;69667;52.136;5.424;2023-07-08T04:10:16;101709.28;;;16.63;76.33
76694;BME280;69667;52.136;5.424;2023-07-08T04:12:43;101706.41;;;16.65;76.26
76694;BME280;69667;52.136;5.424;2023-07-08T04:15:11;101702.31;;;16.70;76.47
76694;BME280;69667;52.136;5.424;2023-07-08T04:17:48;101709.06;;;16.76;76.15
76694;BME280;69667;52.136;5.424;2023-07-08T04:20:17;101708.00;;;16.88;73.95
76694;BME280;69667;52.136;5.424;2023-07-08T04:22:44;101713.91;;;16.93;74.71
76694;BME280;69667;52.136;5.424;2023-07-08T04:25:12;101714.66;;;16.95;74.89
76694;BME280;69667;52.136;5.424;2023-07-08T04:27:40;101711.63;;;16.98;74.17
76694;BME280;69667;52.136;5.424;2023-07-08T04:30:09;101706.78;;;17.01;74.55
76694;BME280;69667;52.136;5.424;2023-07-08T04:32:40;101711.13;;;17.04;74.95
76694;BME280;69667;52.136;5.424;2023-07-08T04:35:09;101705.97;;;17.10;74.52
76694;BME280;69667;52.136;5.424;2023-07-08T04:37:36;101700.69;;;17.18;75.27
76694;BME280;69667;52.136;5.424;2023-07-08T04:40:04;101701.00;;;17.25;72.87
76694;BME280;69667;52.136;5.424;2023-07-08T04:42:31;101713.25;;;17.30;74.43
76694;BME280;69667;52.136;5.424;2023-07-08T04:44:58;101709.69;;;17.39;73.56
76694;BME280;69667;52.136;5.424;2023-07-08T04:47:24;101714.00;;;17.42;74.32
76694;BME280;69667;52.136;5.424;2023-07-08T04:49:51;101720.94;;;17.46;74.24
76694;BME280;69667;52.136;5.424;2023-07-08T04:52:17;101721.13;;;17.54;72.92
76694;BME280;69667;52.136;5.424;2023-07-08T04:54:44;101712.81;;;17.65;71.05
76694;BME280;69667;52.136;5.424;2023-07-08T04:57:11;101709.44;;;17.82;69.34
76694;BME280;69667;52.136;5.424;2023-07-08T04:59:38;101710.03;;;17.95;69.00
76694;BME280;69667;52.136;5.424;2023-07-08T05:02:04;101708.88;;;18.07;68.18
76694;BME280;69667;52.136;5.424;2023-07-08T05:04:33;101706.00;;;18.18;69.24
76694;BME280;69667;52.136;5.424;2023-07-08T05:06:58;101705.16;;;18.27;68.56
76694;BME280;69667;52.136;5.424;2023-07-08T05:09:25;101705.31;;;18.35;67.59
76694;BME280;69667;52.136;5.424;2023-07-08T05:11:52;101696.53;;;18.41;66.87
76694;BME280;69667;52.136;5.424;2023-07-08T05:14:19;101695.69;;;18.50;68.03
76694;BME280;69667;52.136;5.424;2023-07-08T05:16:46;101699.41;;;18.59;66.25
76694;BME280;69667;52.136;5.424;2023-07-08T05:19:12;101692.75;;;18.71;66.22
76694;BME280;69667;52.136;5.424;2023-07-08T05:21:39;101692.75;;;18.80;65.65
76694;BME280;69667;52.136;5.424;2023-07-08T05:24:06;101687.09;;;18.91;64.91
76694;BME280;69667;52.136;5.424;2023-07-08T05:26:33;101691.84;;;18.99;65.01
76694;BME280;69667;52.136;5.424;2023-07-08T05:29:00;101687.06;;;19.11;64.61
76694;BME280;69667;52.136;5.424;2023-07-08T05:31:27;101694.34;;;19.20;65.39
76694;BME280;69667;52.136;5.424;2023-07-08T05:34:11;101694.06;;;19.32;64.02
76694;BME280;69667;52.136;5.424;2023-07-08T05:36:37;101696.69;;;19.51;63.35
76694;BME280;69667;52.136;5.424;2023-07-08T05:39:05;101700.47;;;20.65;60.63
76694;BME280;69667;52.136;5.424;2023-07-08T05:41:32;101688.56;;;22.09;56.57
76694;BME280;69667;52.136;5.424;2023-07-08T05:43:58;101677.28;;;23.86;51.71
76694;BME280;69667;52.136;5.424;2023-07-08T05:46:25;101678.53;;;26.19;46.03
76694;BME280;69667;52.136;5.424;2023-07-08T05:48:52;101683.38;;;27.97;41.51
76694;BME280;69667;52.136;5.424;2023-07-08T05:51:18;101681.63;;;29.09;39.87
76694;BME280;69667;52.136;5.424;2023-07-08T05:53:45;101676.16;;;29.59;37.04
76694;BME280;69667;52.136;5.424;2023-07-08T05:56:12;101665.19;;;30.22;35.73
76694;BME280;69667;52.136;5.424;2023-07-08T05:58:38;101670.19;;;30.75;34.67
76694;BME280;69667;52.136;5.424;2023-07-08T06:01:05;101665.94;;;30.98;33.66
76694;BME280;69667;52.136;5.424;2023-07-08T06:03:32;101673.13;;;31.30;33.20
76694;BME280;69667;52.136;5.424;2023-07-08T06:05:59;101670.06;;;31.56;32.64
76694;BME280;69667;52.136;5.424;2023-07-08T06:08:26;101666.91;;;31.88;32.36
76694;BME280;69667;52.136;5.424;2023-07-08T06:10:52;101670.56;;;32.48;31.31
76694;BME280;69667;52.136;5.424;2023-07-08T06:13:19;101665.19;;;32.76;31.00
76694;BME280;69667;52.136;5.424;2023-07-08T06:15:45;101666.09;;;33.11;30.12
76694;BME280;69667;52.136;5.424;2023-07-08T06:18:12;101671.66;;;33.58;29.14
76694;BME280;69667;52.136;5.424;2023-07-08T06:20:39;101673.97;;;33.61;29.48
76694;BME280;69667;52.136;5.424;2023-07-08T06:23:05;101672.06;;;34.01;30.04
76694;BME280;69667;52.136;5.424;2023-07-08T06:25:32;101664.88;;;34.33;28.33
76694;BME280;69667;52.136;5.424;2023-07-08T06:27:59;101668.91;;;34.53;29.12
76694;BME280;69667;52.136;5.424;2023-07-08T06:30:25;101660.00;;;34.57;27.58
76694;BME280;69667;52.136;5.424;2023-07-08T06:32:52;101660.47;;;34.98;27.80
76694;BME280;69667;52.136;5.424;2023-07-08T06:35:19;101670.03;;;35.19;26.96
76694;BME280;69667;52.136;5.424;2023-07-08T06:37:45;101665.28;;;35.19;28.04
76694;BME280;69667;52.136;5.424;2023-07-08T06:40:12;101682.03;;;35.47;25.96
76694;BME280;69667;52.136;5.424;2023-07-08T06:42:38;101675.53;;;35.63;25.06
76694;BME280;69667;52.136;5.424;2023-07-08T06:45:28;101672.53;;;35.70;26.33
76694;BME280;69667;52.136;5.424;2023-07-08T06:47:54;101672.41;;;36.03;25.18
76694;BME280;69667;52.136;5.424;2023-07-08T06:50:21;101682.91;;;36.34;25.46
76694;BME280;69667;52.136;5.424;2023-07-08T06:52:48;101678.00;;;36.25;24.19
76694;BME280;69667;52.136;5.424;2023-07-08T06:55:14;101673.69;;;35.36;27.40
76694;BME280;69667;52.136;5.424;2023-07-08T06:57:41;101665.13;;;35.64;25.38
76694;BME280;69667;52.136;5.424;2023-07-08T07:00:09;101663.16;;;35.64;25.74
76694;BME280;69667;52.136;5.424;2023-07-08T07:02:36;101661.13;;;36.25;27.22
76694;BME280;69667;52.136;5.424;2023-07-08T07:05:04;101661.25;;;36.35;24.33
76694;BME280;69667;52.136;5.424;2023-07-08T07:07:31;101658.69;;;36.07;24.74
76694;BME280;69667;52.136;5.424;2023-07-08T07:09:57;101653.88;;;36.07;25.12
76694;BME280;69667;52.136;5.424;2023-07-08T07:12:24;101659.69;;;36.49;24.82
76694;BME280;69667;52.136;5.424;2023-07-08T07:14:51;101658.16;;;36.63;25.06
76694;BME280;69667;52.136;5.424;2023-07-08T07:17:21;101661.97;;;36.78;24.47
76694;BME280;69667;52.136;5.424;2023-07-08T07:19:48;101657.63;;;36.66;24.36
76694;BME280;69667;52.136;5.424;2023-07-08T07:22:15;101656.53;;;36.99;24.28
76694;BME280;69667;52.136;5.424;2023-07-08T07:24:42;101653.22;;;37.48;25.04
76694;BME280;69667;52.136;5.424;2023-07-08T07:27:09;101658.88;;;37.53;24.16
76694;BME280;69667;52.136;5.424;2023-07-08T07:29:47;101662.84;;;37.57;26.06
76694;BME280;69667;52.136;5.424;2023-07-08T07:32:15;101657.41;;;37.46;25.20
76694;BME280;69667;52.136;5.424;2023-07-08T07:34:42;101662.22;;;37.45;24.47
76694;BME280;69667;52.136;5.424;2023-07-08T07:37:12;101656.53;;;37.82;23.98
76694;BME280;69667;52.136;5.424;2023-07-08T07:39:40;101654.66;;;37.56;23.62
76694;BME280;69667;52.136;5.424;2023-07-08T07:42:07;101651.78;;;37.46;24.40
76694;BME280;69667;52.136;5.424;2023-07-08T07:44:34;101659.66;;;37.90;25.20
76694;BME280;69667;52.136;5.424;2023-07-08T07:47:02;101656.63;;;38.12;24.19
76694;BME280;69667;52.136;5.424;2023-07-08T07:49:29;101652.44;;;38.20;23.99
76694;BME280;69667;52.136;5.424;2023-07-08T07:51:56;101654.97;;;38.16;23.29
76694;BME280;69667;52.136;5.424;2023-07-08T07:54:22;101652.66;;;38.13;24.41
76694;BME280;69667;52.136;5.424;2023-07-08T07:56:49;101643.81;;;37.84;24.11
76694;BME280;69667;52.136;5.424;2023-07-08T07:59:15;101637.59;;;37.77;23.60
76694;BME280;69667;52.136;5.424;2023-07-08T08:01:42;101640.31;;;37.62;23.96
76694;BME280;69667;52.136;5.424;2023-07-08T08:04:12;101635.59;;;37.73;24.13
76694;BME280;69667;52.136;5.424;2023-07-08T08:06:38;101640.59;;;37.61;24.54
76694;BME280;69667;52.136;5.424;2023-07-08T08:09:06;101645.56;;;37.39;25.10
76694;BME280;69667;52.136;5.424;2023-07-08T08:11:33;101638.25;;;37.06;24.79
76694;BME280;69667;52.136;5.424;2023-07-08T08:14:01;101638.41;;;36.58;26.82
76694;BME280;69667;52.136;5.424;2023-07-08T08:16:30;101627.50;;;36.66;25.11
76694;BME280;69667;52.136;5.424;2023-07-08T08:18:57;101624.56;;;36.25;25.17
76694;BME280;69667;52.136;5.424;2023-07-08T08:21:24;101634.19;;;36.07;27.47
76694;BME280;69667;52.136;5.424;2023-07-08T08:23:50;101630.16;;;35.98;27.02
76694;BME280;69667;52.136;5.424;2023-07-08T08:26:17;101641.88;;;35.90;27.44
76694;BME280;69667;52.136;5.424;2023-07-08T08:28:43;101634.94;;;35.98;26.39
76694;BME280;69667;52.136;5.424;2023-07-08T08:31:10;101642.56;;;35.81;28.31
76694;BME280;69667;52.136;5.424;2023-07-08T08:33:37;101640.28;;;35.78;27.25
76694;BME280;69667;52.136;5.424;2023-07-08T08:36:03;101639.91;;;35.31;27.56
76694;BME280;69667;52.136;5.424;2023-07-08T08:38:30;101635.00;;;35.59;26.53
76694;BME280;69667;52.136;5.424;2023-07-08T08:40:57;101636.13;;;35.42;27.38
76694;BME280;69667;52.136;5.424;2023-07-08T08:43:33;101635.66;;;35.45;28.58
76694;BME280;69667;52.136;5.424;2023-07-08T08:51:46;101648.00;;;35.87;29.84
76694;BME280;69667;52.136;5.424;2023-07-08T08:54:13;101658.56;;;35.97;27.92
76694;BME280;69667;52.136;5.424;2023-07-08T08:57:00;101660.50;;;35.75;28.44
76694;BME280;69667;52.136;5.424;2023-07-08T09:01:58;101641.91;;;35.52;32.24
76694;BME280;69667;52.136;5.424;2023-07-08T09:04:33;101647.34;;;35.80;27.69
76694;BME280;69667;52.136;5.424;2023-07-08T09:07:13;101647.25;;;35.92;29.46
76694;BME280;69667;52.136;5.424;2023-07-08T09:10:29;101643.03;;;35.94;28.62
76694;BME280;69667;52.136;5.424;2023-07-08T09:12:44;101642.75;;;36.17;28.11
76694;BME280;69667;52.136;5.424;2023-07-08T09:15:14;101646.59;;;36.33;29.61
76694;BME280;69667;52.136;5.424;2023-07-08T09:17:41;101638.22;;;36.38;31.05
76694;BME280;69667;52.136;5.424;2023-07-08T09:23:03;101643.72;;;36.54;28.67
76694;BME280;69667;52.136;5.424;2023-07-08T09:25:56;101646.25;;;36.56;28.89
76694;BME280;69667;52.136;5.424;2023-07-08T09:28:40;101638.59;;;36.78;27.74
76694;BME280;69667;52.136;5.424;2023-07-08T09:31:12;101634.22;;;36.60;25.93
76694;BME280;69667;52.136;5.424;2023-07-08T09:33:45;101637.19;;;36.49;25.91
76694;BME280;69667;52.136;5.424;2023-07-08T09:36:23;101631.91;;;36.31;26.09
76694;BME280;69667;52.136;5.424;2023-07-08T09:38:50;101631.19;;;36.35;26.08
76694;BME280;69667;52.136;5.424;2023-07-08T09:41:29;101635.59;;;36.31;27.41
76694;BME280;69667;52.136;5.424;2023-07-08T09:46:53;101624.41;;;36.68;25.20
76694;BME280;69667;52.136;5.424;2023-07-08T09:49:24;101637.81;;;36.82;26.10
76694;BME280;69667;52.136;5.424;2023-07-08T09:51:54;101636.53;;;36.68;27.28
76694;BME280;69667;52.136;5.424;2023-07-08T09:54:22;101639.09;;;36.70;25.70
76694;BME280;69667;52.136;5.424;2023-07-08T09:57:21;101632.78;;;37.26;27.00
76694;BME280;69667;52.136;5.424;2023-07-08T09:59:55;101637.13;;;37.39;24.65
76694;BME280;69667;52.136;5.424;2023-07-08T10:02:32;101638.34;;;37.16;25.75
76694;BME280;69667;52.136;5.424;2023-07-08T10:05:13;101642.72;;;37.34;24.87
76694;BME280;69667;52.136;5.424;2023-07-08T10:07:40;101637.63;;;37.36;24.35
76694;BME280;69667;52.136;5.424;2023-07-08T10:10:11;101646.38;;;37.34;25.52
76694;BME280;69667;52.136;5.424;2023-07-08T10:12:43;101644.75;;;37.48;26.09
76694;BME280;69667;52.136;5.424;2023-07-08T10:15:27;101655.69;;;37.35;24.82
76694;BME280;69667;52.136;5.424;2023-07-08T10:17:55;101656.41;;;37.20;26.51
76694;BME280;69667;52.136;5.424;2023-07-08T10:20:22;101641.94;;;37.48;25.07
76694;BME280;69667;52.136;5.424;2023-07-08T10:23:43;101639.72;;;37.55;27.14
76694;BME280;69667;52.136;5.424;2023-07-08T10:26:32;101638.03;;;37.54;25.34
76694;BME280;69667;52.136;5.424;2023-07-08T10:37:40;101622.25;;;37.53;24.59
76694;BME280;69667;52.136;5.424;2023-07-08T10:48:46;101630.91;;;37.93;26.57
76694;BME280;69667;52.136;5.424;2023-07-08T10:51:53;101638.22;;;37.94;26.65
76694;BME280;69667;52.136;5.424;2023-07-08T11:10:10;101609.53;;;37.51;27.35
76694;BME280;69667;52.136;5.424;2023-07-08T11:12:46;101609.16;;;37.84;24.92
76694;BME280;69667;52.136;5.424;2023-07-08T11:15:43;101615.38;;;37.39;25.79
76694;BME280;69667;52.136;5.424;2023-07-08T11:18:19;101602.69;;;37.32;24.27
76694;BME280;69667;52.136;5.424;2023-07-08T11:20:58;101613.00;;;37.21;27.38
76694;BME280;69667;52.136;5.424;2023-07-08T11:23:37;101605.19;;;37.28;28.21
76694;BME280;69667;52.136;5.424;2023-07-08T11:26:23;101612.97;;;37.16;26.95
76694;BME280;69667;52.136;5.424;2023-07-08T11:28:53;101607.44;;;37.26;25.68
76694;BME280;69667;52.136;5.424;2023-07-08T11:31:22;101605.03;;;37.08;25.59
76694;BME280;69667;52.136;5.424;2023-07-08T11:33:50;101600.13;;;36.89;27.46
76694;BME280;69667;52.136;5.424;2023-07-08T11:36:19;101597.91;;;36.64;26.62
76694;BME280;69667;52.136;5.424;2023-07-08T11:38:52;101595.28;;;36.52;26.64
76694;BME280;69667;52.136;5.424;2023-07-08T11:41:22;101597.06;;;36.58;25.97
76694;BME280;69667;52.136;5.424;2023-07-08T11:43:52;101598.66;;;36.49;27.00
76694;BME280;69667;52.136;5.424;2023-07-08T11:46:24;101599.78;;;36.22;26.65
76694;BME280;69667;52.136;5.424;2023-07-08T11:48:53;101589.88;;;36.46;30.89
76694;BME280;69667;52.136;5.424;2023-07-08T11:51:30;101602.91;;;36.83;26.33
76694;BME280;69667;52.136;5.424;2023-07-08T11:54:11;101593.91;;;36.87;26.05
76694;BME280;69667;52.136;5.424;2023-07-08T11:59:31;101593.66;;;36.88;25.87
76694;BME280;69667;52.136;5.424;2023-07-08T12:02:18;101595.31;;;36.89;26.89
76694;BME280;69667;52.136;5.424;2023-07-08T12:05:01;101595.84;;;36.81;26.16
76694;BME280;69667;52.136;5.424;2023-07-08T12:07:42;101592.09;;;36.75;27.32
76694;BME280;69667;52.136;5.424;2023-07-08T12:10:26;101589.09;;;36.82;25.49
76694;BME280;69667;52.136;5.424;2023-07-08T12:12:53;101583.91;;;36.74;25.11
76694;BME280;69667;52.136;5.424;2023-07-08T12:15:25;101576.06;;;36.76;25.64
76694;BME280;69667;52.136;5.424;2023-07-08T12:17:56;101585.22;;;36.56;24.31
76694;BME280;69667;52.136;5.424;2023-07-08T12:20:36;101587.56;;;36.38;25.20
76694;BME280;69667;52.136;5.424;2023-07-08T12:23:08;101588.47;;;36.43;25.48
76694;BME280;69667;52.136;5.424;2023-07-08T12:25:37;101586.44;;;36.39;23.61
76694;BME280;69667;52.136;5.424;2023-07-08T12:28:03;101579.09;;;36.33;24.77
76694;BME280;69667;52.136;5.424;2023-07-08T12:30:31;101577.31;;;36.27;25.50
76694;BME280;69667;52.136;5.424;2023-07-08T12:33:00;101569.59;;;36.17;25.08
76694;BME280;69667;52.136;5.424;2023-07-08T12:35:30;101572.25;;;36.29;26.84
76694;BME280;69667;52.136;5.424;2023-07-08T12:38:00;101568.72;;;36.38;24.72
76694;BME280;69667;52.136;5.424;2023-07-08T12:40:29;101563.66;;;36.35;26.77
76694;BME280;69667;52.136;5.424;2023-07-08T12:42:57;101558.34;;;36.44;25.51
76694;BME280;69667;52.136;5.424;2023-07-08T12:45:27;101559.25;;;36.49;25.17
76694;BME280;69667;52.136;5.424;2023-07-08T12:47:56;101560.16;;;36.55;24.42
76694;BME280;69667;52.136;5.424;2023-07-08T12:50:23;101559.97;;;36.35;24.59
76694;BME280;69667;52.136;5.424;2023-07-08T12:52:49;101559.97;;;36.35;24.88
76694;BME280;69667;52.136;5.424;2023-07-08T12:55:16;101562.19;;;36.33;24.32
76694;BME280;69667;52.136;5.424;2023-07-08T12:57:47;101561.50;;;36.21;24.68
76694;BME280;69667;52.136;5.424;2023-07-08T13:00:26;101559.22;;;36.18;24.55
76694;BME280;69667;52.136;5.424;2023-07-08T13:03:03;101557.50;;;36.12;24.79
76694;BME280;69667;52.136;5.424;2023-07-08T13:05:31;101558.63;;;36.16;25.42
76694;BME280;69667;52.136;5.424;2023-07-08T13:07:58;101561.22;;;36.22;25.35
76694;BME280;69667;52.136;5.424;2023-07-08T13:10:28;101564.09;;;36.27;25.69
76694;BME280;69667;52.136;5.424;2023-07-08T13:13:00;101560.72;;;36.25;24.33
76694;BME280;69667;52.136;5.424;2023-07-08T13:15:33;101552.91;;;36.06;24.80
76694;BME280;69667;52.136;5.424;2023-07-08T13:18:02;101552.72;;;36.17;24.55
76694;BME280;69667;52.136;5.424;2023-07-08T13:20:29;101559.44;;;36.11;24.29
76694;BME280;69667;52.136;5.424;2023-07-08T13:23:02;101555.41;;;36.02;23.70
76694;BME280;69667;52.136;5.424;2023-07-08T13:25:31;101557.88;;;35.94;24.31
76694;BME280;69667;52.136;5.424;2023-07-08T13:28:01;101549.88;;;35.86;24.80
76694;BME280;69667;52.136;5.424;2023-07-08T13:30:30;101555.88;;;35.94;24.20
76694;BME280;69667;52.136;5.424;2023-07-08T13:32:58;101555.34;;;35.97;24.16
76694;BME280;69667;52.136;5.424;2023-07-08T13:35:36;101549.22;;;36.00;24.95
76694;BME280;69667;52.136;5.424;2023-07-08T13:38:03;101558.59;;;36.11;23.97
76694;BME280;69667;52.136;5.424;2023-07-08T13:40:31;101550.53;;;35.93;22.34
76694;BME280;69667;52.136;5.424;2023-07-08T13:42:58;101554.88;;;35.79;24.38
76694;BME280;69667;52.136;5.424;2023-07-08T13:45:28;101552.34;;;35.82;24.10
76694;BME280;69667;52.136;5.424;2023-07-08T13:48:11;101551.34;;;35.66;24.15
76694;BME280;69667;52.136;5.424;2023-07-08T13:50:46;101551.13;;;35.73;23.20
76694;BME280;69667;52.136;5.424;2023-07-08T13:53:22;101549.81;;;35.81;24.08
76694;BME280;69667;52.136;5.424;2023-07-08T13:55:56;101547.31;;;35.84;23.90
76694;BME280;69667;52.136;5.424;2023-07-08T13:58:26;101551.34;;;35.66;22.78
76694;BME280;69667;52.136;5.424;2023-07-08T14:00:53;101545.81;;;35.50;22.01
76694;BME280;69667;52.136;5.424;2023-07-08T14:03:20;101547.81;;;35.54;22.44
76694;BME280;69667;52.136;5.424;2023-07-08T14:05:48;101544.81;;;35.61;22.44